Terminal Aerodrome Forecast
Issued by NWS

Home | Current Version | Previous Version | Graphics & Text | Print | Product List | Glossary On
Versions: 1 2 3 4 5 6 7 8 9 10 11 12 13 14 15 16 17
000
FTUS43 KBIS 170312 AAA
TAFMOT
TAF AMD
KMOT 170312Z 1703/1724 21012KT P6SM SCT200
     FM171200 24009KT P6SM BKN200 WS020/28035KT
     FM171600 24012KT P6SM BKN200
     FM172000 25015KT P6SM VCSH SCT035 BKN060=

USA.gov is the U.S. government's official web portal to all federal, state and local government web resources and services.